Time,TemperatureF,DewpointF,PressureIn,WindDirection,WindDirectionDegrees,WindSpeedMPH,WindSpeedGustMPH,Humidity,HourlyPrecipIn,Conditions,Clouds,dailyrainin,SoftwareType,DateUTC
2013-10-16 00:05:00,63.4,59.8,29.99,NW,304,2.0,2.0,88,0.00,,,0.00,Wunderground v.1.15,2013-10-16 05:05:00,
2013-10-16 00:09:00,63.2,59.6,29.99,NE,36,3.0,4.0,88,0.00,,,0.00,Wunderground v.1.15,2013-10-16 05:09:00,
2013-10-16 00:15:00,63.1,59.5,29.99,NNW,340,3.0,4.0,88,0.00,,,0.00,Wunderground v.1.15,2013-10-16 05:15:00,
2013-10-16 00:25:00,62.8,59.2,29.98,NW,321,3.0,5.0,88,0.00,,,0.00,Wunderground v.1.15,2013-10-16 05:25:00,
2013-10-16 00:35:00,62.5,58.9,29.97,NE,46,2.0,3.0,88,0.00,,,0.00,Wunderground v.1.15,2013-10-16 05:35:00,
2013-10-16 00:44:00,62.3,59.0,29.96,ENE,63,2.0,3.0,89,0.00,,,0.00,Wunderground v.1.15,2013-10-16 05:44:00,
2013-10-16 00:50:00,62.2,58.9,29.95,NE,48,2.0,2.0,89,0.00,,,0.00,Wunderground v.1.15,2013-10-16 05:50:00,
2013-10-16 01:00:00,62.2,58.9,29.93,NNE,12,1.0,3.0,89,0.00,,,0.00,Wunderground v.1.15,2013-10-16 06:00:00,
2013-10-16 01:09:00,62.2,59.2,29.94,North,356,2.0,6.0,90,0.00,,,0.00,Wunderground v.1.15,2013-10-16 06:09:00,
2013-10-16 01:15:00,62.2,59.2,29.94,NNW,327,2.0,6.0,90,0.00,,,0.00,Wunderground v.1.15,2013-10-16 06:15:00,
2013-10-16 01:24:00,61.9,58.9,29.95,East,84,2.0,2.0,90,0.00,,,0.00,Wunderground v.1.15,2013-10-16 06:24:00,
2013-10-16 01:30:00,61.5,58.5,29.96,NNW,329,3.0,5.0,90,0.00,,,0.00,Wunderground v.1.15,2013-10-16 06:30:00,
2013-10-16 01:39:00,60.8,57.8,29.96,NW,314,2.0,6.0,90,0.00,,,0.00,Wunderground v.1.15,2013-10-16 06:39:00,
2013-10-16 01:45:00,60.4,57.8,29.95,NNW,340,3.0,6.0,91,0.00,,,0.00,Wunderground v.1.15,2013-10-16 06:45:00,
2013-10-16 01:54:00,59.9,57.3,29.96,NNE,22,3.0,7.0,91,0.00,,,0.00,Wunderground v.1.15,2013-10-16 06:54:00,
2013-10-16 02:05:00,59.8,57.2,29.97,WNW,283,3.0,4.0,91,0.00,,,0.00,Wunderground v.1.15,2013-10-16 07:05:00,
2013-10-16 02:14:00,59.5,56.9,29.97,NNW,338,4.0,6.0,91,0.00,,,0.00,Wunderground v.1.15,2013-10-16 07:14:00,
2013-10-16 02:20:00,59.5,56.9,29.97,NW,310,3.0,3.0,91,0.00,,,0.00,Wunderground v.1.15,2013-10-16 07:20:00,
2013-10-16 02:29:00,59.4,56.8,29.97,NNE,31,4.0,4.0,91,0.00,,,0.00,Wunderground v.1.15,2013-10-16 07:29:00,
2013-10-16 02:35:00,59.3,57.0,29.98,NE,41,3.0,4.0,92,0.00,,,0.00,Wunderground v.1.15,2013-10-16 07:35:00,
2013-10-16 02:45:00,59.2,56.9,29.97,NNE,12,3.0,8.0,92,0.00,,,0.00,Wunderground v.1.15,2013-10-16 07:45:00,
2013-10-16 02:55:00,59.1,56.8,29.97,NNE,22,4.0,6.0,92,0.00,,,0.00,Wunderground v.1.15,2013-10-16 07:55:00,
2013-10-16 03:05:00,59.0,56.7,29.97,NNE,27,3.0,3.0,92,0.00,,,0.00,Wunderground v.1.15,2013-10-16 08:05:00,
2013-10-16 03:10:00,59.0,56.7,29.97,ENE,65,3.0,3.0,92,0.00,,,0.00,Wunderground v.1.15,2013-10-16 08:10:00,
2013-10-16 03:20:00,59.0,56.7,29.97,ENE,71,3.0,3.0,92,0.00,,,0.00,Wunderground v.1.15,2013-10-16 08:20:00,
2013-10-16 03:30:00,58.6,56.6,29.98,NNW,328,3.0,3.0,93,0.00,,,0.00,Wunderground v.1.15,2013-10-16 08:30:00,
2013-10-16 03:40:00,58.3,56.6,29.97,WNW,297,4.0,4.0,94,0.00,,,0.00,Wunderground v.1.15,2013-10-16 08:40:00,
2013-10-16 03:50:00,58.1,56.7,29.97,NE,44,3.0,3.0,95,0.09,,,0.02,Wunderground v.1.15,2013-10-16 08:50:00,
2013-10-16 03:59:00,57.8,56.4,29.97,North,7,3.0,3.0,95,0.08,,,0.03,Wunderground v.1.15,2013-10-16 08:59:00,
2013-10-16 04:05:00,57.7,56.6,29.96,NNW,336,2.0,5.0,96,0.07,,,0.04,Wunderground v.1.15,2013-10-16 09:05:00,
2013-10-16 04:15:00,57.6,56.5,29.95,WNW,287,2.0,2.0,96,0.05,,,0.04,Wunderground v.1.15,2013-10-16 09:15:00,
2013-10-16 04:25:00,57.6,56.5,29.95,ENE,65,1.0,4.0,96,0.04,,,0.05,Wunderground v.1.15,2013-10-16 09:25:00,
2013-10-16 04:35:00,57.2,56.1,29.95,NW,314,2.0,3.0,96,0.00,,,0.05,Wunderground v.1.15,2013-10-16 09:35:00,
2013-10-16 04:45:00,57.0,55.9,29.96,NE,46,4.0,4.0,96,0.00,,,0.05,Wunderground v.1.15,2013-10-16 09:45:00,
2013-10-16 04:55:00,56.9,55.8,29.95,North,5,4.0,7.0,96,0.00,,,0.05,Wunderground v.1.15,2013-10-16 09:55:00,
2013-10-16 05:04:00,56.9,55.8,29.95,North,1,2.0,3.0,96,0.00,,,0.05,Wunderground v.1.15,2013-10-16 10:04:00,
2013-10-16 05:10:00,57.0,55.9,29.95,NNW,330,2.0,5.0,96,0.00,,,0.05,Wunderground v.1.15,2013-10-16 10:10:00,
2013-10-16 05:20:00,57.0,55.9,29.96,NNW,344,2.0,2.0,96,0.00,,,0.05,Wunderground v.1.15,2013-10-16 10:20:00,
2013-10-16 05:30:00,57.1,56.3,29.96,NW,325,1.0,1.0,97,0.00,,,0.05,Wunderground v.1.15,2013-10-16 10:30:00,
2013-10-16 05:40:00,57.2,56.4,29.96,SW,221,0.0,0.0,97,0.00,,,0.05,Wunderground v.1.15,2013-10-16 10:40:00,
2013-10-16 05:50:00,57.3,56.5,30.00,WNW,295,2.0,4.0,97,0.00,,,0.05,Wunderground v.1.15,2013-10-16 10:50:00,
2013-10-16 05:59:00,57.1,56.3,30.00,WNW,297,3.0,3.0,97,0.18,,,0.07,Wunderground v.1.15,2013-10-16 10:59:00,
2013-10-16 06:05:00,56.9,55.8,30.00,NW,325,3.0,4.0,96,0.12,,,0.08,Wunderground v.1.15,2013-10-16 11:05:00,
2013-10-16 06:14:00,56.8,55.7,29.99,North,6,3.0,3.0,96,0.07,,,0.09,Wunderground v.1.15,2013-10-16 11:14:00,
2013-10-16 06:25:00,56.8,56.0,29.99,NNE,25,2.0,5.0,97,0.00,,,0.09,Wunderground v.1.15,2013-10-16 11:25:00,
2013-10-16 06:35:00,56.9,56.1,29.98,North,355,1.0,2.0,97,0.00,,,0.10,Wunderground v.1.15,2013-10-16 11:35:00,
2013-10-16 06:45:00,57.0,56.2,29.98,East,87,1.0,1.0,97,0.08,,,0.12,Wunderground v.1.15,2013-10-16 11:45:00,
2013-10-16 06:55:00,57.1,56.3,29.98,East,87,1.0,1.0,97,0.39,,,0.15,Wunderground v.1.15,2013-10-16 11:55:00,
2013-10-16 07:05:00,57.2,56.4,29.99,NW,319,1.0,1.0,97,0.17,,,0.18,Wunderground v.1.15,2013-10-16 12:05:00,
2013-10-16 07:15:00,57.2,56.4,30.00,NNE,15,2.0,2.0,97,0.16,,,0.20,Wunderground v.1.15,2013-10-16 12:15:00,
2013-10-16 07:25:00,57.1,56.3,30.00,NNW,347,3.0,3.0,97,0.14,,,0.22,Wunderground v.1.15,2013-10-16 12:25:00,
2013-10-16 07:35:00,57.1,56.3,30.01,NNW,332,3.0,4.0,97,0.08,,,0.23,Wunderground v.1.15,2013-10-16 12:35:00,
2013-10-16 07:45:00,56.7,55.9,30.01,NNE,27,4.0,5.0,97,0.65,,,0.27,Wunderground v.1.15,2013-10-16 12:45:00,
2013-10-16 07:55:00,56.2,55.4,30.01,NE,42,3.0,5.0,97,0.17,,,0.34,Wunderground v.1.15,2013-10-16 12:55:00,
2013-10-16 08:05:00,55.8,55.0,30.03,NNW,335,3.0,3.0,97,0.80,,,0.40,Wunderground v.1.15,2013-10-16 13:05:00,
2013-10-16 08:15:00,55.6,54.8,30.02,ENE,58,3.0,3.0,97,0.61,,,0.55,Wunderground v.1.15,2013-10-16 13:15:00,
2013-10-16 08:25:00,55.5,54.7,30.03,NNE,30,2.0,5.0,97,0.22,,,0.60,Wunderground v.1.15,2013-10-16 13:25:00,
2013-10-16 08:34:00,55.4,54.6,30.03,NE,40,2.0,3.0,97,0.26,,,0.65,Wunderground v.1.15,2013-10-16 13:34:00,
2013-10-16 08:40:00,55.4,54.6,30.03,North,355,3.0,3.0,97,0.10,,,0.66,Wunderground v.1.15,2013-10-16 13:40:00,
2013-10-16 08:50:00,55.3,54.5,30.03,North,354,3.0,3.0,97,0.14,,,0.71,Wunderground v.1.15,2013-10-16 13:50:00,
2013-10-16 09:00:00,55.4,54.6,30.04,NW,326,3.0,3.0,97,0.14,,,0.73,Wunderground v.1.15,2013-10-16 14:00:00,
2013-10-16 09:10:00,55.5,54.9,30.05,NNE,27,3.0,6.0,98,0.11,,,0.76,Wunderground v.1.15,2013-10-16 14:10:00,
2013-10-16 09:20:00,55.5,54.7,30.04,NNW,330,3.0,4.0,97,0.19,,,0.78,Wunderground v.1.15,2013-10-16 14:20:00,
2013-10-16 09:29:00,55.6,54.8,30.05,NNE,15,3.0,3.0,97,0.09,,,0.80,Wunderground v.1.15,2013-10-16 14:29:00,
2013-10-16 09:35:00,55.7,54.9,30.05,NNE,23,3.0,4.0,97,0.18,,,0.81,Wunderground v.1.15,2013-10-16 14:35:00,
2013-10-16 09:45:00,55.6,54.8,30.04,North,4,3.0,3.0,97,0.11,,,0.83,Wunderground v.1.15,2013-10-16 14:45:00,
2013-10-16 09:55:00,55.6,54.8,30.05,NW,321,3.0,7.0,97,0.04,,,0.83,Wunderground v.1.15,2013-10-16 14:55:00,
2013-10-16 10:04:00,55.7,54.9,30.05,NW,316,4.0,4.0,97,0.00,,,0.83,Wunderground v.1.15,2013-10-16 15:04:00,
2013-10-16 10:10:00,55.8,55.0,30.05,North,5,4.0,4.0,97,0.00,,,0.84,Wunderground v.1.15,2013-10-16 15:10:00,
2013-10-16 10:19:00,55.8,55.0,30.06,NNE,31,3.0,4.0,97,0.16,,,0.86,Wunderground v.1.15,2013-10-16 15:19:00,
2013-10-16 10:25:00,55.8,55.0,30.06,NW,316,3.0,6.0,97,0.07,,,0.86,Wunderground v.1.15,2013-10-16 15:25:00,
2013-10-16 10:34:00,56.0,55.2,30.06,NNW,330,4.0,5.0,97,0.00,,,0.86,Wunderground v.1.15,2013-10-16 15:34:00,
2013-10-16 10:45:00,56.3,55.5,30.05,North,7,3.0,4.0,97,0.00,,,0.86,Wunderground v.1.15,2013-10-16 15:45:00,
2013-10-16 10:55:00,56.5,55.7,30.05,North,360,3.0,6.0,97,0.00,,,0.86,Wunderground v.1.15,2013-10-16 15:55:00,
2013-10-16 11:05:00,56.7,55.9,30.06,NW,323,3.0,3.0,97,0.00,,,0.86,Wunderground v.1.15,2013-10-16 16:05:00,
2013-10-16 11:14:00,57.0,56.2,30.06,NNE,22,3.0,3.0,97,0.00,,,0.87,Wunderground v.1.15,2013-10-16 16:14:00,
2013-10-16 11:20:00,57.2,56.4,30.05,NNE,19,3.0,3.0,97,0.00,,,0.87,Wunderground v.1.15,2013-10-16 16:20:00,
2013-10-16 11:30:00,57.2,56.4,30.06,NE,38,3.0,3.0,97,0.00,,,0.87,Wunderground v.1.15,2013-10-16 16:30:00,
2013-10-16 11:40:00,57.4,56.6,30.06,NNE,25,3.0,4.0,97,0.00,,,0.87,Wunderground v.1.15,2013-10-16 16:40:00,
2013-10-16 11:49:00,57.2,56.4,30.08,NW,304,3.0,3.0,97,0.00,,,0.88,Wunderground v.1.15,2013-10-16 16:49:00,
2013-10-16 12:00:00,57.3,56.5,30.07,North,351,2.0,2.0,97,0.43,,,0.94,Wunderground v.1.15,2013-10-16 17:00:00,
2013-10-16 12:09:00,57.7,56.9,30.07,NE,37,3.0,6.0,97,0.05,,,0.94,Wunderground v.1.15,2013-10-16 17:09:00,
2013-10-16 12:15:00,57.6,56.8,30.07,NE,46,3.0,6.0,97,0.04,,,0.94,Wunderground v.1.15,2013-10-16 17:15:00,
2013-10-16 12:25:00,57.8,57.0,30.06,NNE,22,3.0,3.0,97,0.24,,,0.96,Wunderground v.1.15,2013-10-16 17:25:00,
2013-10-16 12:35:00,57.8,57.0,30.05,NNW,338,3.0,3.0,97,0.07,,,0.97,Wunderground v.1.15,2013-10-16 17:35:00,
2013-10-16 12:45:00,58.0,57.2,30.04,East,83,2.0,4.0,97,0.06,,,0.98,Wunderground v.1.15,2013-10-16 17:45:00,
2013-10-16 12:50:00,58.1,57.3,30.04,NNE,13,3.0,5.0,97,0.04,,,0.98,Wunderground v.1.15,2013-10-16 17:50:00,
2013-10-16 13:00:00,58.6,57.8,30.04,NW,316,3.0,6.0,97,0.00,,,0.98,Wunderground v.1.15,2013-10-16 18:00:00,
2013-10-16 13:10:00,58.9,58.1,30.03,NE,46,3.0,3.0,97,0.00,,,0.98,Wunderground v.1.15,2013-10-16 18:10:00,
2013-10-16 13:19:00,59.0,58.2,30.03,North,7,2.0,2.0,97,0.00,,,0.98,Wunderground v.1.15,2013-10-16 18:19:00,
2013-10-16 13:30:00,58.9,57.8,30.03,NNW,338,2.0,2.0,96,0.00,,,0.98,Wunderground v.1.15,2013-10-16 18:30:00,
2013-10-16 13:39:00,58.9,57.8,30.03,North,1,3.0,3.0,96,0.00,,,0.98,Wunderground v.1.15,2013-10-16 18:39:00,
2013-10-16 13:45:00,59.0,57.9,30.03,North,1,2.0,3.0,96,0.00,,,0.98,Wunderground v.1.15,2013-10-16 18:45:00,
2013-10-16 13:54:00,59.1,58.0,30.02,NNE,25,2.0,7.0,96,0.00,,,0.98,Wunderground v.1.15,2013-10-16 18:54:00,
2013-10-16 14:00:00,59.1,58.0,30.02,NNE,18,3.0,3.0,96,0.00,,,0.98,Wunderground v.1.15,2013-10-16 19:00:00,
2013-10-16 14:10:00,59.2,58.1,30.02,North,360,3.0,4.0,96,0.00,,,0.98,Wunderground v.1.15,2013-10-16 19:10:00,
2013-10-16 14:20:00,59.4,58.3,30.02,NE,41,2.0,2.0,96,0.00,,,0.98,Wunderground v.1.15,2013-10-16 19:20:00,
2013-10-16 14:30:00,59.6,58.5,30.02,NNE,18,2.0,3.0,96,0.00,,,0.98,Wunderground v.1.15,2013-10-16 19:30:00,
2013-10-16 14:39:00,59.8,58.7,30.01,NW,309,3.0,3.0,96,0.00,,,0.98,Wunderground v.1.15,2013-10-16 19:39:00,
2013-10-16 14:45:00,59.9,58.8,30.01,NNE,15,3.0,3.0,96,0.00,,,0.98,Wunderground v.1.15,2013-10-16 19:45:00,
2013-10-16 14:54:00,60.2,59.1,30.01,NNE,18,2.0,5.0,96,0.00,,,0.98,Wunderground v.1.15,2013-10-16 19:54:00,
2013-10-16 15:00:00,60.1,58.7,30.01,North,349,3.0,3.0,95,0.00,,,0.98,Wunderground v.1.15,2013-10-16 20:00:00,
2013-10-16 15:10:00,60.2,58.8,30.01,North,9,3.0,3.0,95,0.00,,,0.98,Wunderground v.1.15,2013-10-16 20:10:00,
2013-10-16 15:20:00,60.3,58.9,30.01,NW,316,3.0,3.0,95,0.00,,,0.98,Wunderground v.1.15,2013-10-16 20:20:00,
2013-10-16 15:29:00,60.1,58.7,30.02,North,9,3.0,3.0,95,0.00,,,0.98,Wunderground v.1.15,2013-10-16 20:29:00,
2013-10-16 15:35:00,60.1,58.7,30.02,NNW,332,3.0,3.0,95,0.00,,,0.98,Wunderground v.1.15,2013-10-16 20:35:00,
2013-10-16 15:45:00,60.0,58.6,30.01,NNE,29,3.0,3.0,95,0.00,,,0.98,Wunderground v.1.15,2013-10-16 20:45:00,
2013-10-16 15:55:00,59.8,58.4,30.01,NNW,342,3.0,3.0,95,0.00,,,0.98,Wunderground v.1.15,2013-10-16 20:55:00,
2013-10-16 16:05:00,59.7,58.3,30.01,WNW,300,3.0,3.0,95,0.00,,,0.98,Wunderground v.1.15,2013-10-16 21:05:00,
2013-10-16 16:15:00,59.9,58.5,30.01,ENE,63,2.0,5.0,95,0.00,,,0.98,Wunderground v.1.15,2013-10-16 21:15:00,
2013-10-16 16:24:00,59.9,58.2,30.01,NNE,31,2.0,4.0,94,0.00,,,0.98,Wunderground v.1.15,2013-10-16 21:24:00,
2013-10-16 16:30:00,59.7,58.0,30.01,NE,55,2.0,2.0,94,0.00,,,0.98,Wunderground v.1.15,2013-10-16 21:30:00,
2013-10-16 16:40:00,59.8,58.1,30.02,NE,47,1.0,1.0,94,0.00,,,0.98,Wunderground v.1.15,2013-10-16 21:40:00,
2013-10-16 16:50:00,59.7,58.0,30.01,NNE,29,2.0,2.0,94,0.00,,,0.98,Wunderground v.1.15,2013-10-16 21:50:00,
2013-10-16 17:00:00,59.8,58.1,30.01,NW,316,3.0,3.0,94,0.00,,,0.98,Wunderground v.1.15,2013-10-16 22:00:00,
2013-10-16 17:10:00,60.0,58.0,30.01,NE,39,3.0,3.0,93,0.00,,,0.98,Wunderground v.1.15,2013-10-16 22:10:00,
2013-10-16 17:20:00,60.1,58.1,30.02,North,354,2.0,3.0,93,0.00,,,0.98,Wunderground v.1.15,2013-10-16 22:20:00,
2013-10-16 17:29:00,60.0,58.0,30.01,North,9,2.0,3.0,93,0.00,,,0.98,Wunderground v.1.15,2013-10-16 22:29:00,
2013-10-16 17:35:00,60.1,58.1,30.01,NNE,13,2.0,3.0,93,0.00,,,0.98,Wunderground v.1.15,2013-10-16 22:35:00,
2013-10-16 17:45:00,60.1,58.1,30.01,NE,39,2.0,2.0,93,0.00,,,0.98,Wunderground v.1.15,2013-10-16 22:45:00,
2013-10-16 17:55:00,60.1,58.1,30.01,WNW,295,2.0,2.0,93,0.00,,,0.98,Wunderground v.1.15,2013-10-16 22:55:00,
2013-10-16 18:04:00,60.0,58.0,30.01,NNW,327,2.0,3.0,93,0.00,,,0.98,Wunderground v.1.15,2013-10-16 23:04:00,
2013-10-16 18:15:00,60.1,58.1,30.02,NW,325,1.0,2.0,93,0.00,,,0.98,Wunderground v.1.15,2013-10-16 23:15:00,
2013-10-16 18:24:00,60.0,58.0,30.02,NNW,332,2.0,2.0,93,0.00,,,0.98,Wunderground v.1.15,2013-10-16 23:24:00,
2013-10-16 18:30:00,60.0,58.0,30.02,North,349,2.0,2.0,93,0.00,,,0.98,Wunderground v.1.15,2013-10-16 23:30:00,
2013-10-16 18:39:00,59.9,57.9,30.02,WNW,300,2.0,2.0,93,0.00,,,0.98,Wunderground v.1.15,2013-10-16 23:39:00,
2013-10-16 18:50:00,60.0,58.0,30.03,North,359,2.0,2.0,93,0.00,,,0.98,Wunderground v.1.15,2013-10-16 23:50:00,
2013-10-16 18:59:00,59.9,57.9,30.03,NNE,16,1.0,2.0,93,0.00,,,0.98,Wunderground v.1.15,2013-10-16 23:59:00,
2013-10-16 19:05:00,59.9,57.9,30.03,NNE,20,1.0,2.0,93,0.00,,,0.98,Wunderground v.1.15,2013-10-17 00:05:00,
2013-10-16 19:14:00,59.8,57.8,30.03,NW,314,2.0,2.0,93,0.00,,,0.98,Wunderground v.1.15,2013-10-17 00:14:00,
2013-10-16 19:25:00,59.8,57.8,30.03,NW,314,2.0,3.0,93,0.00,,,0.98,Wunderground v.1.15,2013-10-17 00:25:00,
2013-10-16 19:34:00,59.8,57.8,30.04,SE,124,2.0,2.0,93,0.00,,,0.98,Wunderground v.1.15,2013-10-17 00:34:00,
2013-10-16 19:40:00,59.8,57.8,30.04,North,351,1.0,1.0,93,0.00,,,0.98,Wunderground v.1.15,2013-10-17 00:40:00,
2013-10-16 19:50:00,59.9,57.9,30.05,WNW,301,1.0,1.0,93,0.00,,,0.98,Wunderground v.1.15,2013-10-17 00:50:00,
2013-10-16 19:55:00,59.9,57.9,30.05,NNW,327,1.0,3.0,93,0.00,,,0.98,Wunderground v.1.15,2013-10-17 00:55:00,
2013-10-16 20:05:00,60.0,58.0,30.05,NE,34,2.0,2.0,93,0.00,,,0.98,Wunderground v.1.15,2013-10-17 01:05:00,
2013-10-16 20:15:00,60.0,58.0,30.05,NNW,340,1.0,2.0,93,0.00,,,0.98,Wunderground v.1.15,2013-10-17 01:15:00,
2013-10-16 20:24:00,60.1,58.1,30.06,ENE,71,1.0,1.0,93,0.00,,,0.98,Wunderground v.1.15,2013-10-17 01:24:00,
2013-10-16 20:35:00,60.1,58.1,30.06,ENE,72,1.0,2.0,93,0.00,,,0.98,Wunderground v.1.15,2013-10-17 01:35:00,
2013-10-16 20:45:00,60.2,58.2,30.07,NNE,12,1.0,1.0,93,0.00,,,0.98,Wunderground v.1.15,2013-10-17 01:45:00,
2013-10-16 20:55:00,60.2,58.2,30.07,WNW,303,1.0,1.0,93,0.00,,,0.98,Wunderground v.1.15,2013-10-17 01:55:00,
2013-10-16 21:05:00,60.3,58.3,30.07,NNW,332,0.0,1.0,93,0.00,,,0.98,Wunderground v.1.15,2013-10-17 02:05:00,
2013-10-16 21:15:00,60.3,58.3,30.07,NNW,338,0.0,0.0,93,0.00,,,0.98,Wunderground v.1.15,2013-10-17 02:15:00,
2013-10-16 21:25:00,60.3,58.3,30.08,NNE,20,0.0,1.0,93,0.00,,,0.98,Wunderground v.1.15,2013-10-17 02:25:00,
2013-10-16 21:34:00,60.4,58.4,30.08,NNW,346,0.0,1.0,93,0.00,,,0.98,Wunderground v.1.15,2013-10-17 02:34:00,
2013-10-16 21:40:00,60.5,58.5,30.08,NNW,347,1.0,1.0,93,0.00,,,0.98,Wunderground v.1.15,2013-10-17 02:40:00,
2013-10-16 21:49:00,60.5,58.5,30.08,NE,53,1.0,1.0,93,0.00,,,0.98,Wunderground v.1.15,2013-10-17 02:49:00,
2013-10-16 22:00:00,60.5,58.5,30.09,NNE,22,0.0,0.0,93,0.00,,,0.98,Wunderground v.1.15,2013-10-17 03:00:00,
2013-10-16 22:09:00,60.7,58.7,30.09,NW,316,1.0,1.0,93,0.00,,,0.98,Wunderground v.1.15,2013-10-17 03:09:00,
2013-10-16 22:20:00,60.7,58.7,30.09,NE,46,0.0,0.0,93,0.00,,,0.98,Wunderground v.1.15,2013-10-17 03:20:00,
2013-10-16 22:30:00,60.8,58.8,30.09,NE,41,0.0,0.0,93,0.00,,,0.98,Wunderground v.1.15,2013-10-17 03:30:00,
2013-10-16 22:40:00,60.8,58.8,30.09,NNW,333,0.0,0.0,93,0.00,,,0.98,Wunderground v.1.15,2013-10-17 03:40:00,
2013-10-16 22:50:00,60.9,58.9,30.09,NNW,333,0.0,0.0,93,0.00,,,0.98,Wunderground v.1.15,2013-10-17 03:50:00,
2013-10-16 23:00:00,60.9,58.9,30.09,NNW,333,0.0,0.0,93,0.00,,,0.98,Wunderground v.1.15,2013-10-17 04:00:00,
2013-10-16 23:04:00,60.9,58.9,30.09,NNW,333,0.0,0.0,93,0.00,,,0.98,Wunderground v.1.15,2013-10-17 04:04:00,
2013-10-16 23:10:00,60.9,58.9,30.09,NNW,333,0.0,0.0,93,0.00,,,0.98,Wunderground v.1.15,2013-10-17 04:10:00,
2013-10-16 23:15:00,60.9,58.9,30.09,NNW,342,0.0,1.0,93,0.00,,,0.98,Wunderground v.1.15,2013-10-17 04:15:00,
2013-10-16 23:25:00,61.0,59.0,30.09,NNW,342,0.0,0.0,93,0.00,,,0.98,Wunderground v.1.15,2013-10-17 04:25:00,
2013-10-16 23:30:00,61.0,59.0,30.09,NNW,342,0.0,0.0,93,0.00,,,0.98,Wunderground v.1.15,2013-10-17 04:30:00,
2013-10-16 23:39:00,61.1,59.1,30.09,NNW,342,0.0,0.0,93,0.00,,,0.98,Wunderground v.1.15,2013-10-17 04:39:00,
2013-10-16 23:45:00,61.1,59.1,30.10,NNW,342,0.0,0.0,93,0.00,,,0.98,Wunderground v.1.15,2013-10-17 04:45:00,
2013-10-16 23:54:00,61.1,59.4,30.10,NNW,342,0.0,0.0,94,0.00,,,0.98,Wunderground v.1.15,2013-10-17 04:54:00,